createdAt,value
2022-11-24T00:00:40.958Z,23.8
2022-11-24T00:01:42.882Z,23.7
2022-11-24T00:02:45.155Z,23.8
2022-11-24T00:03:48.142Z,23.7
2022-11-24T00:04:50.731Z,24.6
2022-11-24T00:05:53.232Z,24.3
2022-11-24T00:06:55.717Z,24.5
2022-11-24T00:07:57.933Z,24.5
2022-11-24T00:09:00.416Z,24.6
2022-11-24T00:10:02.889Z,23.9
2022-11-24T00:11:04.822Z,24.4
2022-11-24T00:12:07.286Z,24.3
2022-11-24T00:13:09.761Z,23.7
2022-11-24T00:14:11.961Z,24.2
2022-11-24T00:15:14.448Z,24.6
2022-11-24T00:16:17.013Z,23.7
2022-11-24T00:17:19.611Z,24.4
2022-11-24T00:18:22.076Z,24.3
2022-11-24T00:19:24.578Z,24.3
2022-11-24T00:20:27.092Z,24.5
2022-11-24T00:21:29.067Z,24.1
2022-11-24T00:22:31.534Z,24.6
2022-11-24T00:23:33.734Z,23.9
2022-11-24T00:24:36.366Z,23.8
2022-11-24T00:25:38.887Z,23.9
2022-11-24T00:26:41.084Z,24.2
2022-11-24T00:27:43.572Z,24.2
2022-11-24T00:28:45.755Z,24.2
2022-11-24T00:29:48.241Z,23.9
2022-11-24T00:30:50.751Z,24.3
2022-11-24T00:31:53.438Z,24
2022-11-24T00:32:55.909Z,24.3
2022-11-24T00:33:57.835Z,24.6
2022-11-24T00:35:00.338Z,24.5
2022-11-24T00:36:02.898Z,24.2
2022-11-24T00:37:05.393Z,24.5
2022-11-24T00:38:07.868Z,24.3
2022-11-24T00:39:10.072Z,24.3
2022-11-24T00:40:12.542Z,24.5
2022-11-24T00:41:15.010Z,24.3
2022-11-24T00:42:17.497Z,24.4
2022-11-24T00:43:19.703Z,24.5
2022-11-24T00:44:22.179Z,24.5
2022-11-24T00:45:24.653Z,24.2
2022-11-24T00:46:26.916Z,24.7
2022-11-24T00:47:30.297Z,24.5
2022-11-24T00:48:32.241Z,24.7
2022-11-24T00:49:34.718Z,24.5
2022-11-24T00:50:36.941Z,24
2022-11-24T00:51:39.461Z,24.3
2022-11-24T00:52:41.959Z,24.4
2022-11-24T00:53:44.430Z,24.1
2022-11-24T00:54:46.633Z,24.3
2022-11-24T00:55:49.109Z,24.2
2022-11-24T00:56:51.595Z,24.5
2022-11-24T00:57:53.809Z,24.6
2022-11-24T00:58:56.291Z,24.6
2022-11-24T00:59:58.966Z,24.5
2022-11-24T01:01:01.488Z,24.5
2022-11-24T01:02:04.118Z,24.4
2022-11-24T01:03:06.941Z,24.6
2022-11-24T01:04:09.134Z,24.5
2022-11-24T01:05:11.327Z,24.6
2022-11-24T01:06:13.835Z,24.4
2022-11-24T01:07:16.412Z,24.2
2022-11-24T01:08:19.331Z,24.6
2022-11-24T01:09:21.236Z,24.7
2022-11-24T01:10:23.752Z,24.5
2022-11-24T01:11:26.216Z,24.6
2022-11-24T01:12:28.463Z,24.6
2022-11-24T01:13:30.924Z,24.6
2022-11-24T01:14:33.829Z,24.5
2022-11-24T01:15:38.046Z,24.6
2022-11-24T01:16:40.820Z,24.5
2022-11-24T01:17:43.291Z,24.4
2022-11-24T01:18:45.818Z,24.4
2022-11-24T01:19:48.009Z,24.4
2022-11-24T01:20:50.195Z,24.4
2022-11-24T01:21:52.695Z,24.3
2022-11-24T01:22:55.208Z,24.7
2022-11-24T01:23:57.156Z,24.3
2022-11-24T01:24:59.629Z,24.5
2022-11-24T01:26:02.097Z,24.5
2022-11-24T01:27:04.016Z,24.5
2022-11-24T01:28:06.208Z,24.6
2022-11-24T01:29:08.424Z,24.5
2022-11-24T01:30:10.333Z,24.3
2022-11-24T01:31:12.864Z,24.4
2022-11-24T01:32:15.899Z,24.5
2022-11-24T01:33:18.373Z,24.6
2022-11-24T01:34:20.858Z,24.5
2022-11-24T01:35:23.383Z,24.6
2022-11-24T01:36:25.579Z,24.5
2022-11-24T01:37:28.077Z,24.6
2022-11-24T01:38:30.807Z,24.7
2022-11-24T01:39:33.299Z,24.5
2022-11-24T01:40:35.765Z,24.6
2022-11-24T01:41:38.239Z,24.4
2022-11-24T01:42:40.431Z,24.6
2022-11-24T01:43:42.902Z,24.5
2022-11-24T01:44:45.095Z,24.4
2022-11-24T01:45:47.719Z,24.4
2022-11-24T01:46:50.148Z,24.4
2022-11-24T01:47:52.075Z,24.6
2022-11-24T01:48:54.541Z,24.4
2022-11-24T01:49:57.024Z,24.3
2022-11-24T01:50:59.222Z,24.2
2022-11-24T01:52:01.702Z,24.7
2022-11-24T01:53:04.202Z,24.8
2022-11-24T01:54:06.715Z,24.7
2022-11-24T01:55:09.221Z,24.7
2022-11-24T01:56:11.141Z,24.8
2022-11-24T01:57:13.348Z,24.6
2022-11-24T01:58:15.548Z,24.6
2022-11-24T01:59:18.013Z,24.6
2022-11-24T02:00:20.478Z,24.7
2022-11-24T02:01:23.011Z,24.6
2022-11-24T02:02:25.532Z,24.6
2022-11-24T02:03:28.079Z,24.8
2022-11-24T02:04:30.270Z,24.6
2022-11-24T02:05:33.627Z,24.6
2022-11-24T02:06:35.824Z,24.8
2022-11-24T02:07:38.497Z,24.7
2022-11-24T02:08:41.421Z,24.4
2022-11-24T02:09:43.949Z,24.4
2022-11-24T02:10:46.163Z,24.4
2022-11-24T02:11:48.641Z,24.4
2022-11-24T02:12:51.106Z,24.7
2022-11-24T02:13:53.579Z,24.5
2022-11-24T02:14:56.054Z,24.6
2022-11-24T02:15:58.569Z,24.6
2022-11-24T02:17:01.070Z,24.7
2022-11-24T02:18:03.549Z,24.7
2022-11-24T02:19:05.739Z,24.5
2022-11-24T02:20:08.238Z,24.6
2022-11-24T02:21:10.727Z,24.8
2022-11-24T02:22:12.659Z,24.6
2022-11-24T02:23:14.659Z,24.7
2022-11-24T02:24:16.915Z,24.6
2022-11-24T02:25:19.654Z,24.7
2022-11-24T02:26:22.149Z,24.6
2022-11-24T02:27:24.340Z,24.4
2022-11-24T02:28:26.816Z,24.7
2022-11-24T02:29:29.003Z,24.5
2022-11-24T02:30:31.199Z,24.4
2022-11-24T02:31:33.744Z,24.7
2022-11-24T02:32:36.244Z,24.6
2022-11-24T02:33:38.713Z,24.6
2022-11-24T02:34:40.641Z,24.7
2022-11-24T02:35:42.818Z,24.6
2022-11-24T02:36:45.046Z,24.5
2022-11-24T02:37:47.522Z,24.7
2022-11-24T02:38:49.451Z,24.7
2022-11-24T02:39:51.941Z,24.7
2022-11-24T02:40:54.467Z,24.7
2022-11-24T02:41:56.695Z,24.8
2022-11-24T02:42:58.897Z,24.8
2022-11-24T02:44:00.837Z,24.7
2022-11-24T02:45:02.746Z,24.7
2022-11-24T02:46:05.316Z,24.7
2022-11-24T02:47:08.038Z,24.7
2022-11-24T02:48:10.526Z,24.7
2022-11-24T02:49:12.999Z,24.6
2022-11-24T02:50:14.930Z,24.6
2022-11-24T02:51:17.401Z,24.8
2022-11-24T02:52:19.633Z,24.7
2022-11-24T02:53:22.171Z,24.6
2022-11-24T02:54:24.646Z,24.7
2022-11-24T02:55:26.846Z,24.8
2022-11-24T02:56:29.362Z,24.7
2022-11-24T02:57:31.848Z,24.8
2022-11-24T02:58:34.041Z,24.7
2022-11-24T02:59:36.515Z,24.7
2022-11-24T03:00:38.986Z,24.9
2022-11-24T03:01:41.503Z,24.7
2022-11-24T03:02:44.293Z,24.7
2022-11-24T03:03:47.244Z,24.8
2022-11-24T03:04:49.798Z,24.8
2022-11-24T03:05:52.260Z,24.7
2022-11-24T03:06:54.464Z,24.7
2022-11-24T03:07:56.971Z,24.8
2022-11-24T03:08:59.193Z,24.7
2022-11-24T03:10:01.387Z,24.5
2022-11-24T03:11:03.878Z,24.6
2022-11-24T03:12:06.110Z,24.7
2022-11-24T03:13:08.600Z,24.9
2022-11-24T03:14:10.788Z,24.6
2022-11-24T03:15:13.254Z,24.7
2022-11-24T03:16:15.485Z,24.6
2022-11-24T03:17:17.734Z,24.7
2022-11-24T03:18:19.911Z,24.6
2022-11-24T03:19:22.392Z,24.7
2022-11-24T03:20:24.307Z,24.8
2022-11-24T03:21:26.509Z,24.6
2022-11-24T03:22:28.700Z,24.7
2022-11-24T03:23:31.209Z,24.8
2022-11-24T03:24:34.036Z,24.6
2022-11-24T03:25:37.660Z,24.6
2022-11-24T03:26:39.882Z,24.7
2022-11-24T03:27:42.098Z,24.8
2022-11-24T03:28:44.349Z,24.5
2022-11-24T03:29:46.838Z,24.6
2022-11-24T03:30:49.133Z,24.6
2022-11-24T03:31:52.088Z,24.6
2022-11-24T03:32:54.554Z,24.9
2022-11-24T03:33:56.948Z,24.6
2022-11-24T03:34:59.139Z,24.7
2022-11-24T03:36:01.322Z,24.7
2022-11-24T03:37:03.526Z,24.7
2022-11-24T03:38:06.001Z,24.7
2022-11-24T03:39:08.241Z,24.7
2022-11-24T03:40:10.720Z,24.6
2022-11-24T03:41:13.201Z,24.6
2022-11-24T03:42:15.433Z,24.6
2022-11-24T03:43:17.643Z,24.8
2022-11-24T03:44:19.863Z,24.6
2022-11-24T03:45:44.607Z,24.6
2022-11-24T03:46:27.375Z,24.8
2022-11-24T03:47:29.327Z,24.8
2022-11-24T03:48:31.797Z,24.7
2022-11-24T03:49:34.463Z,25
2022-11-24T03:50:37.536Z,24.8
2022-11-24T03:51:40.125Z,24.7
2022-11-24T03:52:42.622Z,24.6
2022-11-24T03:53:45.118Z,24.7
2022-11-24T03:54:47.622Z,24.8
2022-11-24T03:55:50.100Z,24.6
2022-11-24T03:56:52.439Z,24.8
2022-11-24T03:57:54.918Z,24.6
2022-11-24T03:58:57.503Z,24.6
2022-11-24T03:59:59.743Z,24.8
2022-11-24T04:01:01.968Z,24.6
2022-11-24T04:02:04.593Z,24.7
2022-11-24T04:03:07.571Z,24.6
2022-11-24T04:04:09.872Z,24.7
2022-11-24T04:05:12.108Z,25
2022-11-24T04:06:14.573Z,24.5
2022-11-24T04:07:16.870Z,24.6
2022-11-24T04:08:19.800Z,24.7
2022-11-24T04:09:22.273Z,24.6
2022-11-24T04:10:24.592Z,24.7
2022-11-24T04:11:27.068Z,24.6
2022-11-24T04:12:29.535Z,24.9
2022-11-24T04:13:31.752Z,24.5
2022-11-24T04:14:34.556Z,24.7
2022-11-24T04:15:38.754Z,24.6
2022-11-24T04:16:41.257Z,24.5
2022-11-24T04:17:43.480Z,24.7
2022-11-24T04:18:46.443Z,24.6
2022-11-24T04:19:48.934Z,24.8
2022-11-24T04:20:51.131Z,24.7
2022-11-24T04:21:53.611Z,24.7
2022-11-24T04:22:55.805Z,24.5
2022-11-24T04:23:57.822Z,24.4
2022-11-24T04:25:00.464Z,24.3
2022-11-24T04:26:02.686Z,24.5
2022-11-24T04:27:04.882Z,24.5
2022-11-24T04:28:07.355Z,24.4
2022-11-24T04:29:09.581Z,24.5
2022-11-24T04:30:12.103Z,24.4
2022-11-24T04:31:14.652Z,24.4
2022-11-24T04:32:17.299Z,24.5
2022-11-24T04:33:19.774Z,24.3
2022-11-24T04:34:21.968Z,24.4
2022-11-24T04:35:24.434Z,24.4
2022-11-24T04:36:26.357Z,24.4
2022-11-24T04:37:28.832Z,24.5
2022-11-24T04:39:19.350Z,24.4
2022-11-24T04:39:36.290Z,24.2
2022-11-24T04:40:38.780Z,24.5
2022-11-24T04:41:41.007Z,24.5
2022-11-24T04:42:42.932Z,24.3
2022-11-24T04:43:45.410Z,24.4
2022-11-24T04:44:47.914Z,24.3
2022-11-24T04:45:50.444Z,24.3
2022-11-24T04:46:53.032Z,24.2
2022-11-24T04:47:55.745Z,24.1
2022-11-24T04:48:57.909Z,24.3
2022-11-24T04:49:59.817Z,24.2
2022-11-24T04:51:02.031Z,24.1
2022-11-24T04:52:04.235Z,24.2
2022-11-24T04:53:06.774Z,24.2
2022-11-24T04:54:09.257Z,24.1
2022-11-24T04:55:11.465Z,24.4
2022-11-24T04:56:13.673Z,24.6
2022-11-24T04:57:16.162Z,24.1
2022-11-24T04:58:18.372Z,24.1
2022-11-24T04:59:20.877Z,23.9
2022-11-24T05:00:23.387Z,24.4
2022-11-24T05:01:25.966Z,24.6
2022-11-24T05:02:28.822Z,24.2
2022-11-24T05:03:31.289Z,24.4
2022-11-24T05:04:34.065Z,24.3
2022-11-24T05:05:38.647Z,24.5
2022-11-24T05:06:41.130Z,24.4
2022-11-24T05:07:43.088Z,24.6
2022-11-24T05:08:45.543Z,24.3
2022-11-24T05:09:58.343Z,24.5
2022-11-24T05:10:53.051Z,24.7
2022-11-24T05:11:54.957Z,24.6
2022-11-24T05:12:57.194Z,24.6
2022-11-24T05:13:59.661Z,24.5
2022-11-24T05:15:02.145Z,24.3
2022-11-24T05:16:04.724Z,24.2
2022-11-24T05:17:07.625Z,24.4
2022-11-24T05:18:10.127Z,24.6
2022-11-24T05:19:12.331Z,24.4
2022-11-24T05:20:14.522Z,24.1
2022-11-24T05:21:16.785Z,24.6
2022-11-24T05:22:19.260Z,24.2
2022-11-24T05:23:21.741Z,24.3
2022-11-24T05:24:24.219Z,24.2
2022-11-24T05:25:26.707Z,24.3
2022-11-24T05:26:28.638Z,24.1
2022-11-24T05:27:31.151Z,24.1
2022-11-24T05:28:33.383Z,24.2
2022-11-24T05:29:35.871Z,24.4
2022-11-24T05:30:38.357Z,24.5
2022-11-24T05:31:40.943Z,24.4
2022-11-24T05:32:43.549Z,24.4
2022-11-24T05:33:46.050Z,24.3
2022-11-24T05:34:48.541Z,24.3
2022-11-24T05:35:51.021Z,24.4
2022-11-24T05:36:53.489Z,24
2022-11-24T05:37:55.730Z,24.6
2022-11-24T05:38:58.206Z,24.4
2022-11-24T05:40:00.680Z,24
2022-11-24T05:41:03.156Z,24.3
2022-11-24T05:42:05.654Z,24.3
2022-11-24T05:43:07.853Z,24.6
2022-11-24T05:44:10.377Z,23.9
2022-11-24T05:45:12.592Z,24.3
2022-11-24T05:46:14.554Z,24.6
2022-11-24T05:47:17.079Z,23.9
2022-11-24T05:48:19.642Z,24
2022-11-24T05:49:22.162Z,24.3
2022-11-24T05:50:24.658Z,24
2022-11-24T05:51:26.852Z,23.8
2022-11-24T05:52:29.082Z,24.6
2022-11-24T05:53:31.620Z,23.8
2022-11-24T05:54:34.345Z,23.9
2022-11-24T05:55:38.014Z,24.4
2022-11-24T05:56:39.918Z,23.8
2022-11-24T05:57:42.399Z,24.4
2022-11-24T05:58:44.877Z,24.4
2022-11-24T05:59:47.389Z,24
2022-11-24T06:00:49.906Z,24.3
2022-11-24T06:01:52.439Z,24.1
2022-11-24T06:02:55.385Z,23.9
2022-11-24T06:03:58.569Z,24.1
2022-11-24T06:05:01.099Z,24.6
2022-11-24T06:06:03.570Z,24.6
2022-11-24T06:07:05.477Z,24.3
2022-11-24T06:08:08.249Z,23.9
2022-11-24T06:09:10.729Z,24.3
2022-11-24T06:10:13.210Z,23.8
2022-11-24T06:11:15.402Z,23.8
2022-11-24T06:12:17.521Z,24
2022-11-24T06:13:19.772Z,23.5
2022-11-24T06:14:22.728Z,23.9
2022-11-24T06:15:25.243Z,24.3
2022-11-24T06:16:27.481Z,23.9
2022-11-24T06:17:29.999Z,23.7
2022-11-24T06:18:31.941Z,24.3
2022-11-24T06:19:37.418Z,24.5
2022-11-24T06:20:39.181Z,23.6
2022-11-24T06:21:47.657Z,23.7
2022-11-24T06:22:50.136Z,24.1
2022-11-24T06:23:52.607Z,24.5
2022-11-24T06:24:54.791Z,24.2
2022-11-24T06:25:56.998Z,23.5
2022-11-24T06:26:58.911Z,24.4
2022-11-24T06:28:00.846Z,24.3
2022-11-24T06:29:03.036Z,24
2022-11-24T06:30:05.244Z,23.9
2022-11-24T06:31:07.924Z,23.8
2022-11-24T06:32:10.671Z,23.8
2022-11-24T06:33:12.573Z,24.2
2022-11-24T06:34:15.099Z,24.3
2022-11-24T06:35:17.613Z,24
2022-11-24T06:36:20.093Z,24.6
2022-11-24T06:37:22.600Z,23.9
2022-11-24T06:38:24.827Z,23.6
2022-11-24T06:39:27.012Z,23.8
2022-11-24T06:40:29.496Z,23.9
2022-11-24T06:41:31.969Z,23.8
2022-11-24T06:42:34.452Z,23.9
2022-11-24T06:43:36.354Z,23.8
2022-11-24T06:44:38.262Z,23.8
2022-11-24T06:45:40.337Z,23.7
2022-11-24T06:46:43.224Z,24.1
2022-11-24T06:47:45.694Z,24.3
2022-11-24T06:48:47.901Z,23.9
2022-11-24T06:49:50.415Z,23.9
2022-11-24T06:50:52.939Z,24.1
2022-11-24T06:51:55.413Z,24.2
2022-11-24T06:52:57.637Z,24.1
2022-11-24T06:54:00.118Z,24.4
2022-11-24T06:55:02.309Z,24.2
2022-11-24T06:56:04.792Z,24.2
2022-11-24T06:57:12.165Z,24.5
2022-11-24T06:58:14.639Z,24.6
2022-11-24T06:59:16.571Z,24.3
2022-11-24T07:00:18.857Z,24.5
2022-11-24T07:01:21.512Z,24.1
2022-11-24T07:02:24.367Z,24
2022-11-24T07:03:26.392Z,24.1
2022-11-24T07:04:29.363Z,23.8
2022-11-24T07:05:32.062Z,23.9
2022-11-24T07:06:34.317Z,24
2022-11-24T07:07:36.580Z,24.1
2022-11-24T07:08:39.184Z,24.1
2022-11-24T07:09:41.398Z,24
2022-11-24T07:10:43.876Z,24.4
2022-11-24T07:11:46.373Z,24.4
2022-11-24T07:12:48.584Z,23.6
2022-11-24T07:13:53.804Z,24.2
2022-11-24T07:14:55.789Z,24
2022-11-24T07:15:58.010Z,24.3
2022-11-24T07:17:00.795Z,23.6
2022-11-24T07:18:03.215Z,23.9
2022-11-24T07:19:05.410Z,24.1
2022-11-24T07:20:07.632Z,24.1
2022-11-24T07:21:10.135Z,24.4
2022-11-24T07:22:12.694Z,24.3
2022-11-24T07:23:14.902Z,24.4
2022-11-24T07:24:17.133Z,23.6
2022-11-24T07:25:19.475Z,23.6
2022-11-24T07:26:21.666Z,24.4
2022-11-24T07:27:24.172Z,24.2
2022-11-24T07:28:26.370Z,24
2022-11-24T07:29:28.909Z,24.3
2022-11-24T07:30:31.404Z,23.7
2022-11-24T07:31:33.985Z,23.7
2022-11-24T07:32:36.572Z,24.4
2022-11-24T07:33:39.107Z,23.6
2022-11-24T07:34:41.307Z,24.2
2022-11-24T07:35:42.951Z,23.5
2022-11-24T07:36:45.219Z,24.1
2022-11-24T07:37:47.779Z,23.7
2022-11-24T07:38:49.711Z,23.8
2022-11-24T07:39:51.939Z,24.3
2022-11-24T07:40:54.150Z,23.5
2022-11-24T07:41:56.660Z,24
2022-11-24T07:42:59.150Z,24.2
2022-11-24T07:44:00.806Z,24.3
2022-11-24T07:45:02.996Z,24.2
2022-11-24T07:46:05.569Z,24.4
2022-11-24T07:47:08.340Z,24.6
2022-11-24T07:48:10.538Z,24.1
2022-11-24T07:49:12.804Z,23.6
2022-11-24T07:50:15.016Z,23.7
2022-11-24T07:51:17.507Z,23.7
2022-11-24T07:52:19.754Z,24.3
2022-11-24T07:53:22.323Z,24.3
2022-11-24T07:54:24.829Z,23.8
2022-11-24T07:55:27.352Z,23.7
2022-11-24T07:56:29.840Z,23.6
2022-11-24T07:57:32.327Z,23.9
2022-11-24T07:58:34.535Z,24.2
2022-11-24T07:59:36.506Z,24.4
2022-11-24T08:00:38.995Z,24.4
2022-11-24T08:01:41.517Z,23.8
2022-11-24T08:02:44.522Z,24.5
2022-11-24T08:03:47.131Z,24.3
2022-11-24T08:04:50.036Z,23.7
2022-11-24T08:06:08.203Z,23.6
2022-11-24T08:06:57.209Z,23.8
2022-11-24T08:07:59.473Z,24.4
2022-11-24T08:09:02.089Z,23.9
2022-11-24T08:10:04.315Z,24.5
2022-11-24T08:11:06.835Z,24
2022-11-24T08:12:08.751Z,23.6
2022-11-24T08:13:11.231Z,24.3
2022-11-24T08:14:13.708Z,24.6
2022-11-24T08:15:16.182Z,24
2022-11-24T08:16:18.790Z,23.8
2022-11-24T08:17:21.531Z,24.4
2022-11-24T08:18:24.011Z,24.1
2022-11-24T08:19:26.242Z,24
2022-11-24T08:20:28.463Z,24.2
2022-11-24T08:21:30.687Z,23.6
2022-11-24T08:22:32.895Z,23.8
2022-11-24T08:23:35.418Z,23.9
2022-11-24T08:24:37.959Z,24.4
2022-11-24T08:25:40.452Z,24.4
2022-11-24T08:26:42.977Z,23.6
2022-11-24T08:27:44.945Z,23.7
2022-11-24T08:28:47.158Z,24.3
2022-11-24T08:29:49.731Z,23.9
2022-11-24T08:30:52.211Z,23.5
2022-11-24T08:31:54.428Z,24
2022-11-24T08:32:57.280Z,24
2022-11-24T08:33:59.772Z,23.4
2022-11-24T08:35:13.306Z,23.6
2022-11-24T08:36:06.708Z,24
2022-11-24T08:37:08.942Z,23.6
2022-11-24T08:38:11.144Z,23.7
2022-11-24T08:39:13.734Z,24.2
2022-11-24T08:40:16.268Z,23.9
2022-11-24T08:41:18.489Z,23.4
2022-11-24T08:42:21.016Z,23.3
2022-11-24T08:43:23.504Z,23.9
2022-11-24T08:44:25.731Z,23.6
2022-11-24T08:45:30.620Z,23.6
2022-11-24T08:46:33.332Z,23.7
2022-11-24T08:47:36.172Z,24.2
2022-11-24T08:48:38.374Z,23.7
2022-11-24T08:49:40.860Z,23.4
2022-11-24T08:50:43.066Z,23.6
2022-11-24T08:51:45.545Z,23.8
2022-11-24T08:52:48.089Z,23.6
2022-11-24T08:53:50.566Z,23.9
2022-11-24T08:54:52.521Z,23.8
2022-11-24T08:55:54.855Z,24
2022-11-24T08:56:56.767Z,24.3
2022-11-24T08:57:59.281Z,23.5
2022-11-24T08:59:01.832Z,23.8
2022-11-24T09:00:04.753Z,23.6
2022-11-24T09:01:07.033Z,23.6
2022-11-24T09:02:10.009Z,23.3
2022-11-24T09:03:12.525Z,23.6
2022-11-24T09:04:14.469Z,23.7
2022-11-24T09:05:43.507Z,23.8
2022-11-24T09:06:21.970Z,24
2022-11-24T09:07:24.251Z,23.9
2022-11-24T09:08:27.022Z,23.3
2022-11-24T09:09:29.500Z,23.5
2022-11-24T09:10:31.741Z,23.4
2022-11-24T09:11:34.344Z,23.7
2022-11-24T09:12:36.854Z,24.2
2022-11-24T09:13:39.084Z,23.6
2022-11-24T09:14:41.298Z,23.7
2022-11-24T09:15:43.780Z,23.3
2022-11-24T09:16:45.748Z,23.8
2022-11-24T09:17:48.146Z,24.1
2022-11-24T09:18:50.633Z,23.8
2022-11-24T09:19:53.109Z,23.6
2022-11-24T09:20:55.324Z,23.8
2022-11-24T09:21:57.513Z,24.1
2022-11-24T09:22:59.727Z,23.5
2022-11-24T09:24:01.984Z,23.2
2022-11-24T09:25:04.273Z,24.1
2022-11-24T09:26:06.790Z,23.7
2022-11-24T09:27:09.335Z,24.1
2022-11-24T09:28:11.827Z,23.7
2022-11-24T09:29:14.347Z,23.3
2022-11-24T09:30:16.835Z,24
2022-11-24T09:31:19.377Z,23.6
2022-11-24T09:32:22.126Z,23.9
2022-11-24T09:33:24.614Z,24.1
2022-11-24T09:34:27.102Z,23.6
2022-11-24T09:35:29.313Z,24
2022-11-24T09:36:31.500Z,23.8
2022-11-24T09:37:33.428Z,23.6
2022-11-24T09:38:35.632Z,23.9
2022-11-24T09:39:37.872Z,24
2022-11-24T09:40:40.386Z,23.6
2022-11-24T09:41:42.619Z,23.9
2022-11-24T09:42:48.139Z,23.3
2022-11-24T09:43:49.871Z,23.8
2022-11-24T09:44:52.110Z,23.7
2022-11-24T09:46:05.315Z,23.8
2022-11-24T09:46:59.675Z,23.9
2022-11-24T09:48:02.657Z,23.5
2022-11-24T09:49:04.865Z,24
2022-11-24T09:50:07.346Z,23.6
2022-11-24T09:51:09.596Z,23.9
2022-11-24T09:52:11.286Z,24
2022-11-24T09:53:13.499Z,23.7
2022-11-24T09:54:16.002Z,23.6
2022-11-24T09:55:18.510Z,23.6
2022-11-24T09:56:20.426Z,23.6
2022-11-24T09:57:22.949Z,23.5
2022-11-24T09:58:25.485Z,23.7
2022-11-24T09:59:26.883Z,24.1
2022-11-24T10:00:29.154Z,23.7
2022-11-24T10:01:31.547Z,24.2
2022-11-24T10:02:34.683Z,24
2022-11-24T10:03:36.917Z,23.7
2022-11-24T10:04:39.465Z,24
2022-11-24T10:05:42.407Z,23.8
2022-11-24T10:06:44.610Z,24.2
2022-11-24T10:07:46.847Z,23.9
2022-11-24T10:08:49.107Z,23.5
2022-11-24T10:09:51.363Z,23.8
2022-11-24T10:10:53.630Z,23.8
2022-11-24T10:11:56.111Z,23.9
2022-11-24T10:12:58.049Z,23.8
2022-11-24T10:14:00.635Z,23.8
2022-11-24T10:15:02.815Z,23.7
2022-11-24T10:16:05.473Z,24.1
2022-11-24T10:17:07.812Z,23.5
2022-11-24T10:18:15.030Z,23.9
2022-11-24T10:19:15.308Z,23.9
2022-11-24T10:20:17.841Z,23.9
2022-11-24T10:21:20.299Z,23.6
2022-11-24T10:22:22.797Z,23.9
2022-11-24T10:23:25.320Z,23.5
2022-11-24T10:24:26.953Z,24
2022-11-24T10:25:29.447Z,23.7
2022-11-24T10:26:31.692Z,24
2022-11-24T10:27:33.622Z,23.8
2022-11-24T10:28:36.148Z,24.1
2022-11-24T10:29:38.687Z,23.8
2022-11-24T10:30:41.235Z,23.8
2022-11-24T10:31:44.145Z,24.1
2022-11-24T10:32:46.633Z,24.2
2022-11-24T10:33:49.151Z,24.1
2022-11-24T10:34:51.639Z,24
2022-11-24T10:35:54.191Z,24.3
2022-11-24T10:36:56.692Z,23.9
2022-11-24T10:37:58.893Z,23.9
2022-11-24T10:39:01.129Z,24.2
2022-11-24T10:40:02.793Z,23.9
2022-11-24T10:41:05.322Z,23.7
2022-11-24T10:42:07.851Z,23.4
2022-11-24T10:43:09.783Z,23.6
2022-11-24T10:44:12.355Z,24.2
2022-11-24T10:45:14.602Z,23.5
2022-11-24T10:46:16.578Z,23.9
2022-11-24T10:47:19.550Z,23.9
2022-11-24T10:48:21.768Z,23.5
2022-11-24T10:49:23.695Z,23.6
2022-11-24T10:50:26.202Z,24.1
2022-11-24T10:51:28.381Z,23.9
2022-11-24T10:52:30.625Z,23.6
2022-11-24T10:53:32.820Z,24
2022-11-24T10:54:35.309Z,23.9
2022-11-24T10:55:37.241Z,23.8
2022-11-24T10:56:39.177Z,24
2022-11-24T10:57:41.408Z,24.3
2022-11-24T10:58:43.623Z,23.9
2022-11-24T10:59:45.862Z,23.9
2022-11-24T11:00:48.431Z,23.6
2022-11-24T11:01:50.714Z,23.3
2022-11-24T11:02:53.475Z,23.9
2022-11-24T11:03:56.475Z,23.4
2022-11-24T11:04:58.681Z,23.5
2022-11-24T11:06:00.881Z,23.9
2022-11-24T11:07:03.354Z,24
2022-11-24T11:08:05.686Z,24.2
2022-11-24T11:09:07.808Z,23.4
2022-11-24T11:10:09.777Z,23.9
2022-11-24T11:11:11.715Z,23.8
2022-11-24T11:12:36.168Z,23.9
2022-11-24T11:13:18.627Z,23.9
2022-11-24T11:14:20.853Z,23.7
2022-11-24T11:15:23.353Z,23.7
2022-11-24T11:16:25.947Z,23.9
2022-11-24T11:17:28.765Z,24.3
2022-11-24T11:18:31.277Z,23.6
2022-11-24T11:19:49.965Z,23.3
2022-11-24T11:20:38.179Z,23.6
2022-11-24T11:21:40.394Z,24
2022-11-24T11:22:42.599Z,24
2022-11-24T11:23:44.832Z,23.5
2022-11-24T11:24:47.330Z,23.8
2022-11-24T11:25:49.567Z,24.3
2022-11-24T11:26:52.046Z,23.9
2022-11-24T11:27:54.257Z,23.7
2022-11-24T11:28:56.769Z,23.8
2022-11-24T11:31:16.240Z,23.7
2022-11-24T11:34:28.569Z,24.2
2022-11-24T11:35:28.288Z,23.7
2022-11-24T11:36:30.868Z,23.9
2022-11-24T11:37:33.074Z,24.2
2022-11-24T11:38:35.274Z,24.2
2022-11-24T11:39:37.561Z,23.9
2022-11-24T11:40:45.126Z,24
2022-11-24T11:41:47.370Z,23.6
2022-11-24T11:43:05.216Z,23.9
2022-11-24T11:43:54.856Z,23.8
2022-11-24T11:44:57.049Z,23.7
2022-11-24T11:45:59.364Z,23.8
2022-11-24T11:47:02.411Z,23.7
2022-11-24T11:48:05.302Z,23.7
2022-11-24T11:49:07.779Z,24.1
2022-11-24T11:50:09.985Z,23.8
2022-11-24T11:51:27.512Z,23.7
2022-11-24T11:52:17.185Z,23.8
2022-11-24T11:53:19.876Z,23.6
2022-11-24T11:54:22.356Z,23.7
2022-11-24T11:55:24.845Z,23.9
2022-11-24T11:56:27.334Z,23.6
2022-11-24T11:57:29.891Z,23.7
2022-11-24T11:58:32.384Z,23.8
2022-11-24T11:59:34.575Z,23.7
2022-11-24T12:00:37.075Z,23.9
2022-11-24T12:01:39.295Z,23.5
2022-11-24T12:02:41.943Z,23.8
2022-11-24T12:03:47.577Z,24
2022-11-24T12:04:50.986Z,23.9
2022-11-24T12:05:53.547Z,23.7
2022-11-24T12:06:56.014Z,24.1
2022-11-24T12:07:58.621Z,23.7
2022-11-24T12:09:19.615Z,23.7
2022-11-24T12:10:09.317Z,23.9
2022-11-24T12:11:11.887Z,23.7
2022-11-24T12:12:14.137Z,23.8
2022-11-24T12:13:16.356Z,24.1
2022-11-24T12:14:18.572Z,23.8
2022-11-24T12:15:21.164Z,23.9
2022-11-24T12:16:23.406Z,24
2022-11-24T12:17:26.291Z,23.7
2022-11-24T12:18:55.670Z,24.1
2022-11-24T12:19:33.772Z,23.9
2022-11-24T12:20:37.721Z,24
2022-11-24T12:21:39.949Z,23.6
2022-11-24T12:22:42.457Z,24.3
2022-11-24T12:23:44.409Z,24.1
2022-11-24T12:24:46.933Z,23.5
2022-11-24T12:25:49.624Z,23.9
2022-11-24T12:26:53.338Z,23.9
2022-11-24T12:27:55.869Z,24.2
2022-11-24T12:28:58.095Z,23.5
2022-11-24T12:30:00.650Z,23.6
2022-11-24T12:31:03.198Z,23.7
2022-11-24T12:32:05.748Z,23.5
2022-11-24T12:33:08.239Z,23.3
2022-11-24T12:34:10.769Z,24.2
2022-11-24T12:35:12.976Z,23.8
2022-11-24T12:36:15.490Z,23.7
2022-11-24T12:37:18.085Z,23.7
2022-11-24T12:38:20.320Z,24.1
2022-11-24T12:39:22.531Z,23.8
2022-11-24T12:40:24.797Z,23.9
2022-11-24T12:41:41.507Z,23.6
2022-11-24T12:42:32.004Z,23.9
2022-11-24T12:43:34.313Z,23.7
2022-11-24T12:44:36.508Z,23.5
2022-11-24T12:45:38.443Z,23.7
2022-11-24T12:46:40.992Z,23.8
2022-11-24T12:47:42.668Z,23.6
2022-11-24T12:48:44.900Z,23.5
2022-11-24T12:49:47.431Z,23.5
2022-11-24T12:50:49.654Z,24
2022-11-24T12:51:51.862Z,23.8
2022-11-24T12:52:58.751Z,23.9
2022-11-24T12:53:59.334Z,23.8
2022-11-24T12:55:01.870Z,23.5
2022-11-24T12:56:04.473Z,23.7
2022-11-24T12:57:06.996Z,24.2
2022-11-24T12:58:11.157Z,23.5
2022-11-24T12:59:14.037Z,23.9
2022-11-24T13:00:16.529Z,24
2022-11-24T13:01:18.918Z,23.9
2022-11-24T13:02:21.575Z,24.1
2022-11-24T13:03:24.724Z,24.1
2022-11-24T13:04:26.978Z,24.1
2022-11-24T13:05:29.380Z,24.3
2022-11-24T13:06:31.873Z,24
2022-11-24T13:07:34.650Z,23.8
2022-11-24T13:08:36.870Z,23.8
2022-11-24T13:09:39.365Z,24.1
2022-11-24T13:10:57.927Z,23.6
2022-11-24T13:11:46.897Z,23.6
2022-11-24T13:12:49.115Z,23.2
2022-11-24T13:13:51.618Z,23.5
2022-11-24T13:14:54.190Z,23.2
2022-11-24T13:16:20.527Z,24.3
2022-11-24T13:18:11.957Z,23.9
2022-11-24T13:19:11.412Z,23.9
2022-11-24T13:20:14.115Z,24.2
2022-11-24T13:21:16.341Z,23.9
2022-11-24T13:22:18.824Z,24
2022-11-24T13:23:20.755Z,23.8
2022-11-24T13:24:22.504Z,24.1
2022-11-24T13:25:24.702Z,23.5
2022-11-24T13:26:26.371Z,23.8
2022-11-24T13:27:28.604Z,24.3
2022-11-24T13:28:54.316Z,24
2022-11-24T13:29:35.851Z,23.6
2022-11-24T13:30:38.454Z,23.9
2022-11-24T13:31:40.989Z,24.3
2022-11-24T13:32:43.972Z,23.7
2022-11-24T13:33:46.459Z,24.1
2022-11-24T13:34:48.991Z,23.4
2022-11-24T13:35:50.980Z,23.8
2022-11-24T13:36:53.518Z,24
2022-11-24T13:37:55.735Z,23.9
2022-11-24T13:38:58.007Z,23.8
2022-11-24T13:40:00.228Z,23.8
2022-11-24T13:41:21.176Z,24.2
2022-11-24T13:42:07.172Z,23.8
2022-11-24T13:43:09.693Z,23.9
2022-11-24T13:44:11.894Z,23.7
2022-11-24T13:45:14.140Z,23.6
2022-11-24T13:46:16.742Z,23.8
2022-11-24T13:47:19.284Z,24
2022-11-24T13:48:22.272Z,23.7
2022-11-24T13:49:24.782Z,24.2
2022-11-24T13:50:26.982Z,23.8
2022-11-24T13:51:28.990Z,23.6
2022-11-24T13:52:30.939Z,24.1
2022-11-24T13:53:33.458Z,23.5
2022-11-24T13:54:35.684Z,24.2
2022-11-24T13:55:38.328Z,23.6
2022-11-24T13:56:40.892Z,23.4
2022-11-24T13:58:59.961Z,24.2
2022-11-24T14:00:02.197Z,24
2022-11-24T14:01:04.701Z,23.8
2022-11-24T14:02:07.410Z,23.5